TAF KRDM
KRDM 081724Z 0818/0918 30013KT P6SM BKN060 BKN250 FM090600 24006KT P6SM BKN060 FM091500 24010KT P6SM BKN040=
METAR KRDM
WC KRDM
WS KRDM
WV KRDM